sensor_id;sensor_type;location;lat;lon;timestamp;P1;durP1;ratioP1;P2;durP2;ratioP2
37451;SDS011;23314;51.114;6.900;2022-08-07T00:01:05;1.90;;;1.73;;
37451;SDS011;23314;51.114;6.900;2022-08-07T00:03:30;2.20;;;1.63;;
37451;SDS011;23314;51.114;6.900;2022-08-07T00:05:56;2.00;;;1.67;;
37451;SDS011;23314;51.114;6.900;2022-08-07T00:08:21;3.53;;;1.90;;
37451;SDS011;23314;51.114;6.900;2022-08-07T00:10:50;1.90;;;1.80;;
37451;SDS011;23314;51.114;6.900;2022-08-07T00:13:17;2.83;;;1.83;;
37451;SDS011;23314;51.114;6.900;2022-08-07T00:15:43;2.67;;;1.80;;
37451;SDS011;23314;51.114;6.900;2022-08-07T00:18:09;1.97;;;1.73;;
37451;SDS011;23314;51.114;6.900;2022-08-07T00:20:35;1.77;;;1.67;;
37451;SDS011;23314;51.114;6.900;2022-08-07T00:23:02;2.37;;;1.83;;
37451;SDS011;23314;51.114;6.900;2022-08-07T00:25:30;1.90;;;1.80;;
37451;SDS011;23314;51.114;6.900;2022-08-07T00:27:56;3.10;;;2.20;;
37451;SDS011;23314;51.114;6.900;2022-08-07T00:30:22;2.03;;;1.60;;
37451;SDS011;23314;51.114;6.900;2022-08-07T00:32:48;3.20;;;1.90;;
37451;SDS011;23314;51.114;6.900;2022-08-07T00:35:14;2.80;;;2.00;;
37451;SDS011;23314;51.114;6.900;2022-08-07T00:37:42;2.57;;;1.93;;
37451;SDS011;23314;51.114;6.900;2022-08-07T00:40:07;2.57;;;2.20;;
37451;SDS011;23314;51.114;6.900;2022-08-07T00:42:33;5.00;;;2.47;;
37451;SDS011;23314;51.114;6.900;2022-08-07T00:44:58;4.63;;;2.10;;
37451;SDS011;23314;51.114;6.900;2022-08-07T00:47:24;3.63;;;1.97;;
37451;SDS011;23314;51.114;6.900;2022-08-07T00:49:49;3.70;;;2.23;;
37451;SDS011;23314;51.114;6.900;2022-08-07T00:52:15;2.30;;;1.67;;
37451;SDS011;23314;51.114;6.900;2022-08-07T00:54:40;2.17;;;1.97;;
37451;SDS011;23314;51.114;6.900;2022-08-07T00:57:06;4.33;;;2.20;;
37451;SDS011;23314;51.114;6.900;2022-08-07T00:59:33;5.43;;;3.13;;
37451;SDS011;23314;51.114;6.900;2022-08-07T01:01:58;5.90;;;4.23;;
37451;SDS011;23314;51.114;6.900;2022-08-07T01:04:26;5.03;;;3.40;;
37451;SDS011;23314;51.114;6.900;2022-08-07T01:06:52;5.77;;;3.07;;
37451;SDS011;23314;51.114;6.900;2022-08-07T01:09:17;3.20;;;2.10;;
37451;SDS011;23314;51.114;6.900;2022-08-07T01:11:42;3.67;;;2.30;;
37451;SDS011;23314;51.114;6.900;2022-08-07T01:14:08;5.03;;;2.20;;
37451;SDS011;23314;51.114;6.900;2022-08-07T01:16:33;3.47;;;2.10;;
37451;SDS011;23314;51.114;6.900;2022-08-07T01:19:00;3.43;;;2.30;;
37451;SDS011;23314;51.114;6.900;2022-08-07T01:21:27;2.27;;;2.00;;
37451;SDS011;23314;51.114;6.900;2022-08-07T01:23:52;4.23;;;2.17;;
37451;SDS011;23314;51.114;6.900;2022-08-07T01:26:18;3.10;;;2.20;;
37451;SDS011;23314;51.114;6.900;2022-08-07T01:28:46;2.37;;;1.87;;
37451;SDS011;23314;51.114;6.900;2022-08-07T01:31:13;2.33;;;2.13;;
37451;SDS011;23314;51.114;6.900;2022-08-07T01:33:39;4.43;;;2.30;;
37451;SDS011;23314;51.114;6.900;2022-08-07T01:36:06;3.30;;;2.40;;
37451;SDS011;23314;51.114;6.900;2022-08-07T01:38:33;2.80;;;2.30;;
37451;SDS011;23314;51.114;6.900;2022-08-07T01:40:59;2.73;;;2.07;;
37451;SDS011;23314;51.114;6.900;2022-08-07T01:43:27;2.33;;;2.07;;
37451;SDS011;23314;51.114;6.900;2022-08-07T01:45:53;2.33;;;1.80;;
37451;SDS011;23314;51.114;6.900;2022-08-07T01:48:20;2.30;;;2.03;;
37451;SDS011;23314;51.114;6.900;2022-08-07T01:50:46;2.17;;;2.00;;
37451;SDS011;23314;51.114;6.900;2022-08-07T01:53:26;2.57;;;2.17;;
37451;SDS011;23314;51.114;6.900;2022-08-07T01:55:55;4.10;;;2.07;;
37451;SDS011;23314;51.114;6.900;2022-08-07T01:58:26;2.27;;;1.97;;
37451;SDS011;23314;51.114;6.900;2022-08-07T02:00:57;3.73;;;2.17;;
37451;SDS011;23314;51.114;6.900;2022-08-07T02:03:28;5.57;;;2.00;;
37451;SDS011;23314;51.114;6.900;2022-08-07T02:06:04;3.33;;;2.20;;
37451;SDS011;23314;51.114;6.900;2022-08-07T02:08:32;2.60;;;2.13;;
37451;SDS011;23314;51.114;6.900;2022-08-07T02:11:01;3.57;;;2.10;;
37451;SDS011;23314;51.114;6.900;2022-08-07T02:13:28;3.37;;;2.20;;
37451;SDS011;23314;51.114;6.900;2022-08-07T02:15:56;3.63;;;2.60;;
37451;SDS011;23314;51.114;6.900;2022-08-07T02:18:25;2.83;;;2.33;;
37451;SDS011;23314;51.114;6.900;2022-08-07T02:20:53;4.20;;;2.57;;
37451;SDS011;23314;51.114;6.900;2022-08-07T02:23:21;2.80;;;2.53;;
37451;SDS011;23314;51.114;6.900;2022-08-07T02:25:49;3.10;;;2.23;;
37451;SDS011;23314;51.114;6.900;2022-08-07T02:28:17;3.73;;;2.40;;
37451;SDS011;23314;51.114;6.900;2022-08-07T02:30:44;2.70;;;2.50;;
37451;SDS011;23314;51.114;6.900;2022-08-07T02:33:11;4.57;;;2.50;;
37451;SDS011;23314;51.114;6.900;2022-08-07T02:35:38;4.27;;;2.70;;
37451;SDS011;23314;51.114;6.900;2022-08-07T02:38:04;3.63;;;2.37;;
37451;SDS011;23314;51.114;6.900;2022-08-07T02:40:32;3.70;;;2.47;;
37451;SDS011;23314;51.114;6.900;2022-08-07T02:42:59;3.93;;;2.10;;
37451;SDS011;23314;51.114;6.900;2022-08-07T02:45:26;4.03;;;2.50;;
37451;SDS011;23314;51.114;6.900;2022-08-07T02:47:54;3.90;;;2.80;;
37451;SDS011;23314;51.114;6.900;2022-08-07T02:50:20;4.30;;;2.57;;
37451;SDS011;23314;51.114;6.900;2022-08-07T02:52:52;5.53;;;2.83;;
37451;SDS011;23314;51.114;6.900;2022-08-07T02:55:22;5.27;;;2.73;;
37451;SDS011;23314;51.114;6.900;2022-08-07T02:57:51;3.83;;;2.60;;
37451;SDS011;23314;51.114;6.900;2022-08-07T03:00:18;2.80;;;2.60;;
37451;SDS011;23314;51.114;6.900;2022-08-07T03:02:45;4.00;;;3.10;;
37451;SDS011;23314;51.114;6.900;2022-08-07T03:05:13;3.43;;;2.77;;
37451;SDS011;23314;51.114;6.900;2022-08-07T03:07:39;4.83;;;2.47;;
37451;SDS011;23314;51.114;6.900;2022-08-07T03:10:06;3.57;;;3.00;;
37451;SDS011;23314;51.114;6.900;2022-08-07T03:12:33;4.20;;;2.80;;
37451;SDS011;23314;51.114;6.900;2022-08-07T03:14:59;5.23;;;2.80;;
37451;SDS011;23314;51.114;6.900;2022-08-07T03:17:25;4.63;;;3.20;;
37451;SDS011;23314;51.114;6.900;2022-08-07T03:19:51;3.23;;;2.60;;
37451;SDS011;23314;51.114;6.900;2022-08-07T03:22:17;3.67;;;2.97;;
37451;SDS011;23314;51.114;6.900;2022-08-07T03:24:45;3.93;;;2.77;;
37451;SDS011;23314;51.114;6.900;2022-08-07T03:27:10;2.77;;;2.57;;
37451;SDS011;23314;51.114;6.900;2022-08-07T03:29:39;3.33;;;2.43;;
37451;SDS011;23314;51.114;6.900;2022-08-07T03:32:07;4.10;;;3.60;;
37451;SDS011;23314;51.114;6.900;2022-08-07T03:34:35;5.00;;;3.10;;
37451;SDS011;23314;51.114;6.900;2022-08-07T03:37:02;3.67;;;2.60;;
37451;SDS011;23314;51.114;6.900;2022-08-07T03:39:29;5.53;;;3.00;;
37451;SDS011;23314;51.114;6.900;2022-08-07T03:41:57;5.07;;;3.10;;
37451;SDS011;23314;51.114;6.900;2022-08-07T03:44:22;3.20;;;2.90;;
37451;SDS011;23314;51.114;6.900;2022-08-07T03:46:48;4.73;;;3.00;;
37451;SDS011;23314;51.114;6.900;2022-08-07T03:49:14;3.53;;;2.47;;
37451;SDS011;23314;51.114;6.900;2022-08-07T03:51:39;3.10;;;2.80;;
37451;SDS011;23314;51.114;6.900;2022-08-07T03:54:06;4.13;;;3.10;;
37451;SDS011;23314;51.114;6.900;2022-08-07T03:56:32;3.60;;;2.87;;
37451;SDS011;23314;51.114;6.900;2022-08-07T03:59:01;3.43;;;2.97;;
37451;SDS011;23314;51.114;6.900;2022-08-07T04:01:27;3.73;;;3.00;;
37451;SDS011;23314;51.114;6.900;2022-08-07T04:03:54;6.77;;;3.30;;
37451;SDS011;23314;51.114;6.900;2022-08-07T04:06:20;5.03;;;2.70;;
37451;SDS011;23314;51.114;6.900;2022-08-07T04:08:45;5.80;;;4.00;;
37451;SDS011;23314;51.114;6.900;2022-08-07T04:11:11;3.63;;;2.90;;
37451;SDS011;23314;51.114;6.900;2022-08-07T04:13:37;3.90;;;3.37;;
37451;SDS011;23314;51.114;6.900;2022-08-07T04:16:03;3.50;;;3.20;;
37451;SDS011;23314;51.114;6.900;2022-08-07T04:18:29;3.90;;;3.43;;
37451;SDS011;23314;51.114;6.900;2022-08-07T04:20:54;3.13;;;2.93;;
37451;SDS011;23314;51.114;6.900;2022-08-07T04:23:20;2.87;;;2.67;;
37451;SDS011;23314;51.114;6.900;2022-08-07T04:25:46;5.23;;;3.23;;
37451;SDS011;23314;51.114;6.900;2022-08-07T04:28:12;5.83;;;3.33;;
37451;SDS011;23314;51.114;6.900;2022-08-07T04:30:38;4.20;;;3.77;;
37451;SDS011;23314;51.114;6.900;2022-08-07T04:33:05;4.40;;;3.07;;
37451;SDS011;23314;51.114;6.900;2022-08-07T04:35:32;4.37;;;3.47;;
37451;SDS011;23314;51.114;6.900;2022-08-07T04:37:58;4.63;;;3.23;;
37451;SDS011;23314;51.114;6.900;2022-08-07T04:40:23;3.90;;;3.03;;
37451;SDS011;23314;51.114;6.900;2022-08-07T04:42:49;3.87;;;3.57;;
37451;SDS011;23314;51.114;6.900;2022-08-07T04:45:14;5.73;;;3.57;;
37451;SDS011;23314;51.114;6.900;2022-08-07T04:47:42;4.37;;;3.43;;
37451;SDS011;23314;51.114;6.900;2022-08-07T04:50:31;3.93;;;3.30;;
37451;SDS011;23314;51.114;6.900;2022-08-07T04:53:04;5.03;;;3.50;;
37451;SDS011;23314;51.114;6.900;2022-08-07T04:55:35;6.07;;;3.27;;
37451;SDS011;23314;51.114;6.900;2022-08-07T04:58:15;3.57;;;3.27;;
37451;SDS011;23314;51.114;6.900;2022-08-07T05:00:52;3.30;;;3.07;;
37451;SDS011;23314;51.114;6.900;2022-08-07T05:06:17;3.40;;;3.10;;
37451;SDS011;23314;51.114;6.900;2022-08-07T05:11:31;3.23;;;3.03;;
37451;SDS011;23314;51.114;6.900;2022-08-07T05:14:07;5.80;;;3.93;;
37451;SDS011;23314;51.114;6.900;2022-08-07T05:16:36;4.60;;;3.43;;
37451;SDS011;23314;51.114;6.900;2022-08-07T05:19:06;3.57;;;3.03;;
37451;SDS011;23314;51.114;6.900;2022-08-07T05:21:36;3.47;;;3.20;;
37451;SDS011;23314;51.114;6.900;2022-08-07T05:24:03;3.17;;;2.87;;
37451;SDS011;23314;51.114;6.900;2022-08-07T05:26:34;2.67;;;2.47;;
37451;SDS011;23314;51.114;6.900;2022-08-07T05:29:02;3.63;;;2.90;;
37451;SDS011;23314;51.114;6.900;2022-08-07T05:31:31;3.67;;;3.33;;
37451;SDS011;23314;51.114;6.900;2022-08-07T05:33:57;4.63;;;2.80;;
37451;SDS011;23314;51.114;6.900;2022-08-07T05:36:24;3.00;;;2.70;;
37451;SDS011;23314;51.114;6.900;2022-08-07T05:38:51;3.50;;;2.03;;
37451;SDS011;23314;51.114;6.900;2022-08-07T05:41:18;2.93;;;1.90;;
37451;SDS011;23314;51.114;6.900;2022-08-07T05:43:45;2.43;;;2.03;;
37451;SDS011;23314;51.114;6.900;2022-08-07T05:46:13;4.07;;;1.70;;
37451;SDS011;23314;51.114;6.900;2022-08-07T05:48:40;2.20;;;2.07;;
37451;SDS011;23314;51.114;6.900;2022-08-07T05:51:06;3.20;;;1.57;;
37451;SDS011;23314;51.114;6.900;2022-08-07T05:53:33;1.63;;;1.53;;
37451;SDS011;23314;51.114;6.900;2022-08-07T05:55:59;3.43;;;1.43;;
37451;SDS011;23314;51.114;6.900;2022-08-07T05:58:25;1.50;;;1.40;;
37451;SDS011;23314;51.114;6.900;2022-08-07T06:00:51;2.80;;;1.90;;
37451;SDS011;23314;51.114;6.900;2022-08-07T06:03:18;3.47;;;1.63;;
37451;SDS011;23314;51.114;6.900;2022-08-07T06:05:46;2.53;;;1.40;;
37451;SDS011;23314;51.114;6.900;2022-08-07T06:08:13;2.90;;;1.60;;
37451;SDS011;23314;51.114;6.900;2022-08-07T06:10:40;1.60;;;1.50;;
37451;SDS011;23314;51.114;6.900;2022-08-07T06:13:06;1.97;;;1.63;;
37451;SDS011;23314;51.114;6.900;2022-08-07T06:15:31;2.07;;;1.17;;
37451;SDS011;23314;51.114;6.900;2022-08-07T06:17:59;1.70;;;1.47;;
37451;SDS011;23314;51.114;6.900;2022-08-07T06:20:26;3.57;;;2.03;;
37451;SDS011;23314;51.114;6.900;2022-08-07T06:22:52;1.83;;;1.30;;
37451;SDS011;23314;51.114;6.900;2022-08-07T06:25:18;1.30;;;1.20;;
37451;SDS011;23314;51.114;6.900;2022-08-07T06:27:43;1.33;;;1.23;;
37451;SDS011;23314;51.114;6.900;2022-08-07T06:30:09;2.40;;;1.10;;
37451;SDS011;23314;51.114;6.900;2022-08-07T06:32:35;2.83;;;1.10;;
37451;SDS011;23314;51.114;6.900;2022-08-07T06:35:00;7.60;;;2.10;;
37451;SDS011;23314;51.114;6.900;2022-08-07T06:37:26;6.37;;;2.00;;
37451;SDS011;23314;51.114;6.900;2022-08-07T06:39:51;2.40;;;1.10;;
37451;SDS011;23314;51.114;6.900;2022-08-07T06:42:18;3.67;;;1.40;;
37451;SDS011;23314;51.114;6.900;2022-08-07T06:44:46;1.63;;;1.23;;
37451;SDS011;23314;51.114;6.900;2022-08-07T06:47:12;1.23;;;1.10;;
37451;SDS011;23314;51.114;6.900;2022-08-07T06:49:38;4.13;;;1.70;;
37451;SDS011;23314;51.114;6.900;2022-08-07T06:52:04;1.47;;;1.30;;
37451;SDS011;23314;51.114;6.900;2022-08-07T06:54:34;1.43;;;1.10;;
37451;SDS011;23314;51.114;6.900;2022-08-07T06:57:02;5.53;;;1.30;;
37451;SDS011;23314;51.114;6.900;2022-08-07T06:59:30;3.13;;;1.30;;
37451;SDS011;23314;51.114;6.900;2022-08-07T07:02:00;3.33;;;1.20;;
37451;SDS011;23314;51.114;6.900;2022-08-07T07:04:26;3.20;;;1.20;;
37451;SDS011;23314;51.114;6.900;2022-08-07T07:06:54;2.23;;;1.37;;
37451;SDS011;23314;51.114;6.900;2022-08-07T07:09:21;3.17;;;2.13;;
37451;SDS011;23314;51.114;6.900;2022-08-07T07:14:23;1.07;;;1.00;;
37451;SDS011;23314;51.114;6.900;2022-08-07T07:16:50;2.00;;;1.10;;
37451;SDS011;23314;51.114;6.900;2022-08-07T07:19:20;1.10;;;1.00;;
37451;SDS011;23314;51.114;6.900;2022-08-07T07:21:54;1.43;;;1.00;;
37451;SDS011;23314;51.114;6.900;2022-08-07T07:24:19;3.60;;;1.10;;
37451;SDS011;23314;51.114;6.900;2022-08-07T07:26:45;1.40;;;1.10;;
37451;SDS011;23314;51.114;6.900;2022-08-07T07:29:13;3.67;;;1.23;;
37451;SDS011;23314;51.114;6.900;2022-08-07T07:31:45;2.30;;;1.40;;
37451;SDS011;23314;51.114;6.900;2022-08-07T07:34:24;1.17;;;1.07;;
37451;SDS011;23314;51.114;6.900;2022-08-07T07:36:53;1.73;;;1.10;;
37451;SDS011;23314;51.114;6.900;2022-08-07T07:39:21;1.10;;;1.00;;
37451;SDS011;23314;51.114;6.900;2022-08-07T07:41:49;2.60;;;1.00;;
37451;SDS011;23314;51.114;6.900;2022-08-07T07:44:15;2.00;;;1.00;;
37451;SDS011;23314;51.114;6.900;2022-08-07T07:46:42;2.67;;;1.27;;
37451;SDS011;23314;51.114;6.900;2022-08-07T07:49:08;1.80;;;0.93;;
37451;SDS011;23314;51.114;6.900;2022-08-07T07:51:35;1.17;;;0.90;;
37451;SDS011;23314;51.114;6.900;2022-08-07T07:54:02;3.13;;;1.00;;
37451;SDS011;23314;51.114;6.900;2022-08-07T07:56:29;4.47;;;1.00;;
37451;SDS011;23314;51.114;6.900;2022-08-07T07:58:59;0.80;;;0.80;;
37451;SDS011;23314;51.114;6.900;2022-08-07T08:01:26;3.33;;;0.90;;
37451;SDS011;23314;51.114;6.900;2022-08-07T08:03:54;1.77;;;0.90;;
37451;SDS011;23314;51.114;6.900;2022-08-07T08:06:21;1.17;;;1.00;;
37451;SDS011;23314;51.114;6.900;2022-08-07T08:08:49;1.53;;;1.10;;
37451;SDS011;23314;51.114;6.900;2022-08-07T08:11:16;1.83;;;1.13;;
37451;SDS011;23314;51.114;6.900;2022-08-07T08:13:43;2.80;;;0.98;;
37451;SDS011;23314;51.114;6.900;2022-08-07T08:16:11;1.40;;;1.08;;
37451;SDS011;23314;51.114;6.900;2022-08-07T08:18:41;1.27;;;1.17;;
37451;SDS011;23314;51.114;6.900;2022-08-07T08:21:07;1.52;;;1.20;;
37451;SDS011;23314;51.114;6.900;2022-08-07T08:23:53;1.17;;;1.08;;
37451;SDS011;23314;51.114;6.900;2022-08-07T08:26:38;1.20;;;1.05;;
37451;SDS011;23314;51.114;6.900;2022-08-07T08:29:23;2.88;;;1.20;;
37451;SDS011;23314;51.114;6.900;2022-08-07T08:31:48;1.35;;;1.08;;
37451;SDS011;23314;51.114;6.900;2022-08-07T08:34:15;0.95;;;0.95;;
37451;SDS011;23314;51.114;6.900;2022-08-07T08:36:43;1.20;;;0.90;;
37451;SDS011;23314;51.114;6.900;2022-08-07T08:39:13;5.53;;;0.93;;
37451;SDS011;23314;51.114;6.900;2022-08-07T08:41:42;1.85;;;1.00;;
37451;SDS011;23314;51.114;6.900;2022-08-07T08:44:23;1.77;;;0.90;;
37451;SDS011;23314;51.114;6.900;2022-08-07T08:50:13;1.42;;;0.85;;
37451;SDS011;23314;51.114;6.900;2022-08-07T08:55:37;1.20;;;1.10;;
37451;SDS011;23314;51.114;6.900;2022-08-07T08:58:07;1.77;;;1.05;;
37451;SDS011;23314;51.114;6.900;2022-08-07T09:00:44;1.15;;;0.82;;
37451;SDS011;23314;51.114;6.900;2022-08-07T09:03:21;1.48;;;0.93;;
37451;SDS011;23314;51.114;6.900;2022-08-07T09:05:56;6.32;;;4.75;;
37451;SDS011;23314;51.114;6.900;2022-08-07T09:12:09;1.73;;;0.80;;
37451;SDS011;23314;51.114;6.900;2022-08-07T09:14:45;1.00;;;1.00;;
37451;SDS011;23314;51.114;6.900;2022-08-07T09:17:40;0.70;;;0.70;;
37451;SDS011;23314;51.114;6.900;2022-08-07T09:25:38;3.43;;;1.27;;
37451;SDS011;23314;51.114;6.900;2022-08-07T09:28:10;1.27;;;0.70;;
37451;SDS011;23314;51.114;6.900;2022-08-07T09:38:53;1.95;;;0.75;;
37451;SDS011;23314;51.114;6.900;2022-08-07T09:46:52;0.60;;;0.60;;
37451;SDS011;23314;51.114;6.900;2022-08-07T10:00:18;0.50;;;0.50;;
37451;SDS011;23314;51.114;6.900;2022-08-07T10:25:06;0.70;;;0.65;;
37451;SDS011;23314;51.114;6.900;2022-08-07T10:28:02;2.58;;;0.68;;
37451;SDS011;23314;51.114;6.900;2022-08-07T10:41:30;0.77;;;0.70;;
37451;SDS011;23314;51.114;6.900;2022-08-07T10:52:38;1.52;;;0.57;;
37451;SDS011;23314;51.114;6.900;2022-08-07T11:00:33;0.63;;;0.63;;
37451;SDS011;23314;51.114;6.900;2022-08-07T11:03:11;2.72;;;0.93;;
37451;SDS011;23314;51.114;6.900;2022-08-07T11:05:43;1.02;;;0.70;;
37451;SDS011;23314;51.114;6.900;2022-08-07T11:08:11;0.60;;;0.60;;
37451;SDS011;23314;51.114;6.900;2022-08-07T11:10:41;0.80;;;0.60;;
37451;SDS011;23314;51.114;6.900;2022-08-07T11:16:07;0.70;;;0.70;;
37451;SDS011;23314;51.114;6.900;2022-08-07T11:18:41;1.67;;;0.68;;
37451;SDS011;23314;51.114;6.900;2022-08-07T11:21:32;0.65;;;0.65;;
37451;SDS011;23314;51.114;6.900;2022-08-07T11:24:11;0.50;;;0.50;;
37451;SDS011;23314;51.114;6.900;2022-08-07T11:26:50;1.65;;;0.60;;
37451;SDS011;23314;51.114;6.900;2022-08-07T11:32:22;1.10;;;0.88;;
37451;SDS011;23314;51.114;6.900;2022-08-07T11:40:35;0.80;;;0.80;;
37451;SDS011;23314;51.114;6.900;2022-08-07T11:43:23;1.98;;;1.25;;
37451;SDS011;23314;51.114;6.900;2022-08-07T11:45:56;0.95;;;0.60;;
37451;SDS011;23314;51.114;6.900;2022-08-07T11:48:53;0.70;;;0.70;;
37451;SDS011;23314;51.114;6.900;2022-08-07T11:51:30;1.75;;;0.77;;
37451;SDS011;23314;51.114;6.900;2022-08-07T12:00:04;0.90;;;0.60;;
37451;SDS011;23314;51.114;6.900;2022-08-07T12:02:40;0.98;;;0.60;;
37451;SDS011;23314;51.114;6.900;2022-08-07T12:08:17;0.60;;;0.60;;
37451;SDS011;23314;51.114;6.900;2022-08-07T12:10:47;0.60;;;0.60;;
37451;SDS011;23314;51.114;6.900;2022-08-07T12:13:29;0.60;;;0.60;;
37451;SDS011;23314;51.114;6.900;2022-08-07T12:16:06;1.17;;;1.02;;
37451;SDS011;23314;51.114;6.900;2022-08-07T12:18:40;1.70;;;0.60;;
37451;SDS011;23314;51.114;6.900;2022-08-07T12:21:19;0.50;;;0.50;;
37451;SDS011;23314;51.114;6.900;2022-08-07T12:23:53;0.63;;;0.63;;
37451;SDS011;23314;51.114;6.900;2022-08-07T12:26:57;0.70;;;0.70;;
37451;SDS011;23314;51.114;6.900;2022-08-07T12:29:22;0.50;;;0.50;;
37451;SDS011;23314;51.114;6.900;2022-08-07T12:34:28;3.05;;;0.77;;
37451;SDS011;23314;51.114;6.900;2022-08-07T12:36:57;0.80;;;0.70;;
37451;SDS011;23314;51.114;6.900;2022-08-07T12:39:23;3.33;;;0.65;;
37451;SDS011;23314;51.114;6.900;2022-08-07T12:41:51;2.10;;;0.73;;
37451;SDS011;23314;51.114;6.900;2022-08-07T12:44:17;0.55;;;0.50;;
37451;SDS011;23314;51.114;6.900;2022-08-07T12:46:48;3.28;;;0.70;;
37451;SDS011;23314;51.114;6.900;2022-08-07T12:49:41;0.77;;;0.70;;
37451;SDS011;23314;51.114;6.900;2022-08-07T12:52:12;0.60;;;0.60;;
37451;SDS011;23314;51.114;6.900;2022-08-07T12:57:08;1.77;;;0.60;;
37451;SDS011;23314;51.114;6.900;2022-08-07T12:59:34;0.75;;;0.73;;
37451;SDS011;23314;51.114;6.900;2022-08-07T13:05:13;1.42;;;0.60;;
37451;SDS011;23314;51.114;6.900;2022-08-07T13:10:55;1.55;;;0.70;;
37451;SDS011;23314;51.114;6.900;2022-08-07T13:16:54;1.17;;;0.80;;
37451;SDS011;23314;51.114;6.900;2022-08-07T13:22:14;3.90;;;0.90;;
37451;SDS011;23314;51.114;6.900;2022-08-07T13:24:52;1.05;;;0.73;;
37451;SDS011;23314;51.114;6.900;2022-08-07T13:30:05;2.17;;;0.77;;
37451;SDS011;23314;51.114;6.900;2022-08-07T13:33:02;1.33;;;0.70;;
37451;SDS011;23314;51.114;6.900;2022-08-07T13:35:41;0.90;;;0.90;;
37451;SDS011;23314;51.114;6.900;2022-08-07T13:41:03;1.05;;;0.80;;
37451;SDS011;23314;51.114;6.900;2022-08-07T13:43:40;1.13;;;1.08;;
37451;SDS011;23314;51.114;6.900;2022-08-07T13:46:07;0.68;;;0.68;;
37451;SDS011;23314;51.114;6.900;2022-08-07T13:48:36;1.65;;;0.60;;
37451;SDS011;23314;51.114;6.900;2022-08-07T13:51:02;4.03;;;0.80;;
37451;SDS011;23314;51.114;6.900;2022-08-07T13:53:29;3.60;;;0.60;;
37451;SDS011;23314;51.114;6.900;2022-08-07T13:56:00;0.80;;;0.80;;
37451;SDS011;23314;51.114;6.900;2022-08-07T13:58:27;1.05;;;0.80;;
37451;SDS011;23314;51.114;6.900;2022-08-07T14:01:16;0.57;;;0.57;;
37451;SDS011;23314;51.114;6.900;2022-08-07T14:03:43;0.95;;;0.95;;
37451;SDS011;23314;51.114;6.900;2022-08-07T14:06:10;2.22;;;0.60;;
37451;SDS011;23314;51.114;6.900;2022-08-07T14:08:42;1.17;;;0.80;;
37451;SDS011;23314;51.114;6.900;2022-08-07T14:11:12;0.70;;;0.65;;
37451;SDS011;23314;51.114;6.900;2022-08-07T14:13:40;1.42;;;0.95;;
37451;SDS011;23314;51.114;6.900;2022-08-07T14:16:08;1.38;;;0.65;;
37451;SDS011;23314;51.114;6.900;2022-08-07T14:18:48;0.68;;;0.68;;
37451;SDS011;23314;51.114;6.900;2022-08-07T14:21:19;1.50;;;1.08;;
37451;SDS011;23314;51.114;6.900;2022-08-07T14:23:50;0.80;;;0.70;;
37451;SDS011;23314;51.114;6.900;2022-08-07T14:26:21;0.80;;;0.80;;
37451;SDS011;23314;51.114;6.900;2022-08-07T14:28:50;0.80;;;0.80;;
37451;SDS011;23314;51.114;6.900;2022-08-07T14:31:18;0.57;;;0.57;;
37451;SDS011;23314;51.114;6.900;2022-08-07T14:33:49;0.60;;;0.60;;
37451;SDS011;23314;51.114;6.900;2022-08-07T14:36:16;1.38;;;0.88;;
37451;SDS011;23314;51.114;6.900;2022-08-07T14:38:44;1.38;;;0.90;;
37451;SDS011;23314;51.114;6.900;2022-08-07T14:41:13;1.83;;;1.05;;
37451;SDS011;23314;51.114;6.900;2022-08-07T14:43:53;0.68;;;0.68;;
37451;SDS011;23314;51.114;6.900;2022-08-07T14:46:19;0.63;;;0.63;;
37451;SDS011;23314;51.114;6.900;2022-08-07T14:48:46;2.25;;;0.70;;
37451;SDS011;23314;51.114;6.900;2022-08-07T14:51:18;3.10;;;0.82;;
37451;SDS011;23314;51.114;6.900;2022-08-07T14:53:51;2.75;;;0.80;;
37451;SDS011;23314;51.114;6.900;2022-08-07T14:56:18;2.05;;;0.90;;
37451;SDS011;23314;51.114;6.900;2022-08-07T14:59:02;0.85;;;0.80;;
37451;SDS011;23314;51.114;6.900;2022-08-07T15:01:31;0.70;;;0.70;;
37451;SDS011;23314;51.114;6.900;2022-08-07T15:04:02;0.60;;;0.60;;
37451;SDS011;23314;51.114;6.900;2022-08-07T15:06:31;1.80;;;0.70;;
37451;SDS011;23314;51.114;6.900;2022-08-07T15:09:06;1.77;;;0.77;;
37451;SDS011;23314;51.114;6.900;2022-08-07T15:11:46;0.63;;;0.63;;
37451;SDS011;23314;51.114;6.900;2022-08-07T15:14:23;0.70;;;0.70;;
37451;SDS011;23314;51.114;6.900;2022-08-07T15:16:51;2.25;;;1.90;;
37451;SDS011;23314;51.114;6.900;2022-08-07T15:19:21;6.00;;;3.00;;
37451;SDS011;23314;51.114;6.900;2022-08-07T15:21:52;0.90;;;0.90;;
37451;SDS011;23314;51.114;6.900;2022-08-07T15:24:35;0.57;;;0.57;;
37451;SDS011;23314;51.114;6.900;2022-08-07T15:29:50;1.38;;;0.95;;
37451;SDS011;23314;51.114;6.900;2022-08-07T15:32:18;5.65;;;0.70;;
37451;SDS011;23314;51.114;6.900;2022-08-07T15:34:51;1.05;;;0.70;;
37451;SDS011;23314;51.114;6.900;2022-08-07T15:37:22;0.73;;;0.63;;
37451;SDS011;23314;51.114;6.900;2022-08-07T15:39:58;1.55;;;0.80;;
37451;SDS011;23314;51.114;6.900;2022-08-07T15:45:11;0.90;;;0.90;;
37451;SDS011;23314;51.114;6.900;2022-08-07T15:47:42;1.23;;;0.80;;
37451;SDS011;23314;51.114;6.900;2022-08-07T15:50:12;0.73;;;0.73;;
37451;SDS011;23314;51.114;6.900;2022-08-07T15:52:42;0.70;;;0.68;;
37451;SDS011;23314;51.114;6.900;2022-08-07T15:55:10;0.60;;;0.60;;
37451;SDS011;23314;51.114;6.900;2022-08-07T15:57:38;0.70;;;0.70;;
37451;SDS011;23314;51.114;6.900;2022-08-07T16:00:07;0.60;;;0.60;;
37451;SDS011;23314;51.114;6.900;2022-08-07T16:02:43;1.35;;;0.90;;
37451;SDS011;23314;51.114;6.900;2022-08-07T16:05:15;1.35;;;0.75;;
37451;SDS011;23314;51.114;6.900;2022-08-07T16:07:52;0.75;;;0.60;;
37451;SDS011;23314;51.114;6.900;2022-08-07T16:10:26;2.15;;;1.35;;
37451;SDS011;23314;51.114;6.900;2022-08-07T16:15:40;1.77;;;0.85;;
37451;SDS011;23314;51.114;6.900;2022-08-07T16:21:23;2.03;;;0.80;;
37451;SDS011;23314;51.114;6.900;2022-08-07T16:24:00;0.82;;;0.80;;
37451;SDS011;23314;51.114;6.900;2022-08-07T16:29:39;1.23;;;0.80;;
37451;SDS011;23314;51.114;6.900;2022-08-07T16:32:33;1.00;;;1.00;;
37451;SDS011;23314;51.114;6.900;2022-08-07T16:35:25;1.13;;;0.70;;
37451;SDS011;23314;51.114;6.900;2022-08-07T16:49:56;0.90;;;0.60;;
37451;SDS011;23314;51.114;6.900;2022-08-07T16:55:24;0.70;;;0.70;;
37451;SDS011;23314;51.114;6.900;2022-08-07T16:58:15;0.60;;;0.60;;
37451;SDS011;23314;51.114;6.900;2022-08-07T17:03:38;1.02;;;0.95;;
37451;SDS011;23314;51.114;6.900;2022-08-07T17:06:12;0.93;;;0.93;;
37451;SDS011;23314;51.114;6.900;2022-08-07T17:09:13;1.27;;;1.17;;
37451;SDS011;23314;51.114;6.900;2022-08-07T17:11:45;2.40;;;0.90;;
37451;SDS011;23314;51.114;6.900;2022-08-07T17:17:07;1.48;;;1.13;;
37451;SDS011;23314;51.114;6.900;2022-08-07T17:19:44;0.70;;;0.70;;
37451;SDS011;23314;51.114;6.900;2022-08-07T17:25:02;2.25;;;1.00;;
37451;SDS011;23314;51.114;6.900;2022-08-07T17:30:11;0.80;;;0.80;;
37451;SDS011;23314;51.114;6.900;2022-08-07T17:35:38;1.98;;;0.90;;
37451;SDS011;23314;51.114;6.900;2022-08-07T17:38:45;1.30;;;1.20;;
37451;SDS011;23314;51.114;6.900;2022-08-07T17:41:17;1.20;;;1.15;;
37451;SDS011;23314;51.114;6.900;2022-08-07T17:43:51;0.90;;;0.80;;
37451;SDS011;23314;51.114;6.900;2022-08-07T17:46:41;2.03;;;0.77;;
37451;SDS011;23314;51.114;6.900;2022-08-07T17:54:47;1.20;;;1.20;;
37451;SDS011;23314;51.114;6.900;2022-08-07T17:57:26;1.02;;;1.00;;
37451;SDS011;23314;51.114;6.900;2022-08-07T17:59:58;0.80;;;0.80;;
37451;SDS011;23314;51.114;6.900;2022-08-07T18:02:35;0.85;;;0.85;;
37451;SDS011;23314;51.114;6.900;2022-08-07T18:08:11;1.60;;;1.50;;
37451;SDS011;23314;51.114;6.900;2022-08-07T18:13:29;1.20;;;0.90;;
37451;SDS011;23314;51.114;6.900;2022-08-07T18:16:15;2.05;;;1.02;;
37451;SDS011;23314;51.114;6.900;2022-08-07T18:18:49;1.17;;;1.10;;
37451;SDS011;23314;51.114;6.900;2022-08-07T18:30:16;2.00;;;1.30;;